createdAt,value
2019-06-26T00:00:13.786Z,101822.86
2019-06-26T00:02:42.441Z,101825.16
2019-06-26T00:05:11.743Z,101823.48
2019-06-26T00:07:41.087Z,101831.38
2019-06-26T00:10:10.598Z,101831.38
2019-06-26T00:12:40.119Z,101834.84
2019-06-26T00:15:10.197Z,101836.42
2019-06-26T00:17:39.857Z,101828.70
2019-06-26T00:20:09.684Z,101848.13
2019-06-26T00:22:39.044Z,101857.13
2019-06-26T00:25:08.928Z,101856.24
2019-06-26T00:27:38.335Z,101857.98
2019-06-26T00:30:08.553Z,101858.20
2019-06-26T00:32:37.919Z,101859.30
2019-06-26T00:35:07.290Z,101855.02
2019-06-26T00:37:36.910Z,101857.94
2019-06-26T00:40:07.162Z,101859.55
2019-06-26T00:42:36.525Z,101865.16
2019-06-26T00:45:07.122Z,101860.50
2019-06-26T00:47:36.734Z,101864.62
2019-06-26T00:50:10.493Z,101863.41
2019-06-26T00:52:40.147Z,101867.19
2019-06-26T00:55:09.622Z,101867.96
2019-06-26T00:57:38.975Z,101864.67
2019-06-26T01:00:09.840Z,101869.70
2019-06-26T01:02:40.596Z,101867.31
2019-06-26T01:05:11.944Z,101871.22
2019-06-26T01:07:41.600Z,101873.30
2019-06-26T01:10:12.737Z,101873.72
2019-06-26T01:12:42.160Z,101876.14
2019-06-26T01:15:11.982Z,101872.80
2019-06-26T01:17:41.327Z,101874.23
2019-06-26T01:20:11.117Z,101877.13
2019-06-26T01:22:40.734Z,101878.13
2019-06-26T01:25:10.140Z,101881.49
2019-06-26T01:27:39.725Z,101878.94
2019-06-26T01:30:10.321Z,101878.73
2019-06-26T01:32:39.915Z,101878.78
2019-06-26T01:35:09.632Z,101881.08
2019-06-26T01:37:39.225Z,101881.28
2019-06-26T01:40:09.129Z,101884.48
2019-06-26T01:42:38.563Z,101874.77
2019-06-26T01:45:08.434Z,101883.81
2019-06-26T01:47:37.952Z,101881.33
2019-06-26T01:50:08.521Z,101889.51
2019-06-26T01:52:37.870Z,101884.69
2019-06-26T01:55:07.468Z,101890.30
2019-06-26T01:57:37.781Z,101894.56
2019-06-26T02:00:09.294Z,101893.97
2019-06-26T02:02:38.740Z,101894.64
2019-06-26T02:05:08.417Z,101897.87
2019-06-26T02:07:37.946Z,101895.77
2019-06-26T02:10:07.970Z,101901.26
2019-06-26T02:12:38.675Z,101901.37
2019-06-26T02:15:09.250Z,101905.12
2019-06-26T02:17:38.589Z,101906.25
2019-06-26T02:20:08.153Z,101906.36
2019-06-26T02:22:37.499Z,101910.57
2019-06-26T02:25:06.997Z,101908.98
2019-06-26T02:27:36.417Z,101918.92
2019-06-26T02:30:07.398Z,101922.22
2019-06-26T02:32:36.838Z,101930.81
2019-06-26T02:35:09.904Z,101921.42
2019-06-26T02:37:38.631Z,101926.03
2019-06-26T02:40:09.583Z,101929.29
2019-06-26T02:42:39.201Z,101928.59
2019-06-26T02:45:09.386Z,101930.45
2019-06-26T02:47:39.024Z,101926.97
2019-06-26T02:50:10.271Z,101929.80
2019-06-26T02:52:39.706Z,101917.90
2019-06-26T02:55:09.789Z,101924.89
2019-06-26T02:57:39.163Z,101933.44
2019-06-26T03:00:08.871Z,101936.29
2019-06-26T03:02:38.394Z,101938.61
2019-06-26T03:05:07.859Z,101944.10
2019-06-26T03:07:37.430Z,101938.37
2019-06-26T03:10:09.785Z,101944.24
2019-06-26T03:12:39.362Z,101947.80
2019-06-26T03:15:09.870Z,101951.52
2019-06-26T03:17:54.259Z,101956.64
2019-06-26T03:20:12.955Z,101963.34
2019-06-26T03:22:42.317Z,101962.64
2019-06-26T03:25:11.651Z,101967.62
2019-06-26T03:27:40.991Z,101974.02
2019-06-26T03:30:10.606Z,101970.00
2019-06-26T03:32:39.952Z,101978.61
2019-06-26T03:35:09.349Z,101977.37
2019-06-26T03:37:38.688Z,101981.82
2019-06-26T03:40:08.600Z,101982.32
2019-06-26T03:42:38.172Z,101986.41
2019-06-26T03:45:24.206Z,101988.41
2019-06-26T03:47:39.431Z,101988.50
2019-06-26T03:50:09.624Z,101994.86
2019-06-26T03:52:39.079Z,101990.44
2019-06-26T03:55:08.618Z,101993.20
2019-06-26T03:57:37.987Z,102000.93
2019-06-26T04:00:08.311Z,102003.20
2019-06-26T04:02:37.640Z,102010.40
2019-06-26T04:05:07.217Z,102013.45
2019-06-26T04:07:37.624Z,102016.19
2019-06-26T04:10:09.180Z,102018.50
2019-06-26T04:12:38.764Z,102024.32
2019-06-26T04:15:08.437Z,102028.89
2019-06-26T04:17:37.993Z,102038.33
2019-06-26T04:20:08.175Z,102037.86
2019-06-26T04:22:37.516Z,102035.37
2019-06-26T04:25:08.783Z,102044.27
2019-06-26T04:27:38.111Z,102042.53
2019-06-26T04:30:10.436Z,102042.27
2019-06-26T04:32:40.044Z,102041.80
2019-06-26T04:35:09.894Z,102044.48
2019-06-26T04:37:39.303Z,102046.31
2019-06-26T04:40:09.983Z,102046.93
2019-06-26T04:42:39.680Z,102050.09
2019-06-26T04:45:09.504Z,102050.63
2019-06-26T04:47:39.110Z,102047.89
2019-06-26T04:50:08.751Z,102051.55
2019-06-26T04:52:38.128Z,102052.92
2019-06-26T04:55:08.327Z,102059.61
2019-06-26T04:57:37.702Z,102061.95
2019-06-26T05:00:09.556Z,102061.42
2019-06-26T05:02:38.975Z,102067.70
2019-06-26T05:05:09.091Z,102074.89
2019-06-26T05:07:38.461Z,102071.42
2019-06-26T05:10:10.821Z,102074.56
2019-06-26T05:12:40.618Z,102083.45
2019-06-26T05:15:10.659Z,102086.99
2019-06-26T05:17:40.010Z,102083.99
2019-06-26T05:20:09.729Z,102086.41
2019-06-26T05:22:39.211Z,102080.03
2019-06-26T05:25:09.941Z,102080.12
2019-06-26T05:27:39.241Z,102082.39
2019-06-26T05:30:11.675Z,102085.06
2019-06-26T05:32:40.994Z,102090.50
2019-06-26T05:35:10.921Z,102091.45
2019-06-26T05:37:40.493Z,102095.94
2019-06-26T05:40:13.537Z,102096.86
2019-06-26T05:42:42.902Z,102095.85
2019-06-26T05:45:14.380Z,102094.92
2019-06-26T05:47:44.678Z,102103.91
2019-06-26T05:50:14.849Z,102111.22
2019-06-26T05:52:44.229Z,102108.05
2019-06-26T05:55:14.877Z,102118.78
2019-06-26T05:57:48.357Z,102122.80
2019-06-26T06:00:16.915Z,102122.47
2019-06-26T06:02:46.303Z,102115.39
2019-06-26T06:05:16.141Z,102124.76
2019-06-26T06:07:45.699Z,102127.02
2019-06-26T06:10:15.376Z,102132.32
2019-06-26T06:12:44.788Z,102143.08
2019-06-26T06:15:15.193Z,102140.35
2019-06-26T06:17:44.538Z,102148.48
2019-06-26T06:20:14.447Z,102147.69
2019-06-26T06:22:43.786Z,102148.97
2019-06-26T06:25:14.122Z,102151.52
2019-06-26T06:27:43.455Z,102143.49
2019-06-26T06:30:13.489Z,102139.06
2019-06-26T06:32:42.778Z,102144.42
2019-06-26T06:35:12.278Z,102141.69
2019-06-26T06:37:41.616Z,102141.34
2019-06-26T06:40:11.368Z,102153.38
2019-06-26T06:42:40.708Z,102152.94
2019-06-26T06:45:10.233Z,102154.66
2019-06-26T06:47:39.596Z,102159.52
2019-06-26T06:50:09.381Z,102159.95
2019-06-26T06:52:38.971Z,102164.41
2019-06-26T06:55:08.471Z,102164.77
2019-06-26T06:57:37.836Z,102173.22
2019-06-26T07:00:08.279Z,102174.95
2019-06-26T07:02:37.867Z,102177.56
2019-06-26T07:05:07.866Z,102179.37
2019-06-26T07:07:37.278Z,102177.48
2019-06-26T07:10:09.549Z,102186.33
2019-06-26T07:12:39.160Z,102185.44
2019-06-26T07:15:09.456Z,102178.69
2019-06-26T07:17:38.801Z,102180.44
2019-06-26T07:20:08.285Z,102186.20
2019-06-26T07:22:37.924Z,102187.00
2019-06-26T07:25:07.745Z,102190.52
2019-06-26T07:27:37.083Z,102192.41
2019-06-26T07:30:07.325Z,102190.69
2019-06-26T07:32:36.665Z,102187.13
2019-06-26T07:35:06.666Z,102189.67
2019-06-26T07:37:37.043Z,102193.69
2019-06-26T07:40:07.518Z,102194.95
2019-06-26T07:42:36.825Z,102205.58
2019-06-26T07:45:06.503Z,102205.50
2019-06-26T07:47:43.155Z,102206.32
2019-06-26T07:50:08.066Z,102208.05
2019-06-26T07:52:37.610Z,102215.53
2019-06-26T07:55:11.817Z,102217.28
2019-06-26T07:57:39.588Z,102224.36
2019-06-26T08:00:09.541Z,102231.00
2019-06-26T08:02:38.872Z,102229.17
2019-06-26T08:05:09.086Z,102235.35
2019-06-26T08:07:39.695Z,102230.87
2019-06-26T08:10:09.823Z,102230.32
2019-06-26T08:12:39.186Z,102232.05
2019-06-26T08:15:08.846Z,102223.08
2019-06-26T08:17:38.235Z,102231.06
2019-06-26T08:20:08.029Z,102232.64
2019-06-26T08:22:37.368Z,102236.17
2019-06-26T08:25:07.883Z,102242.27
2019-06-26T08:27:38.022Z,102245.35
2019-06-26T08:30:10.605Z,102244.39
2019-06-26T08:32:39.971Z,102243.87
2019-06-26T08:35:09.594Z,102246.48
2019-06-26T08:37:39.287Z,102245.95
2019-06-26T08:40:10.004Z,102246.80
2019-06-26T08:42:39.374Z,102244.00
2019-06-26T08:45:10.300Z,102242.98
2019-06-26T08:47:39.917Z,102249.60
2019-06-26T08:50:10.468Z,102259.36
2019-06-26T08:52:39.886Z,102257.97
2019-06-26T08:55:10.327Z,102256.95
2019-06-26T08:57:40.020Z,102256.45
2019-06-26T09:00:11.538Z,102257.18
2019-06-26T09:02:41.208Z,102257.56
2019-06-26T09:05:11.694Z,102261.84
2019-06-26T09:07:41.047Z,102261.67
2019-06-26T09:10:10.764Z,102263.82
2019-06-26T09:12:40.101Z,102264.20
2019-06-26T09:15:09.670Z,102264.55
2019-06-26T09:17:39.025Z,102262.18
2019-06-26T09:20:08.879Z,102261.62
2019-06-26T09:22:38.252Z,102257.09
2019-06-26T09:25:21.063Z,102252.48
2019-06-26T09:27:40.136Z,102246.06
2019-06-26T09:30:09.911Z,102253.49
2019-06-26T09:32:39.640Z,102250.66
2019-06-26T09:35:09.292Z,102248.75
2019-06-26T09:37:38.690Z,102257.17
2019-06-26T09:40:08.811Z,102258.85
2019-06-26T09:42:38.522Z,102248.90
2019-06-26T09:45:08.170Z,102260.01
2019-06-26T09:47:38.630Z,102257.09
2019-06-26T09:50:09.283Z,102255.25
2019-06-26T09:52:38.991Z,102260.53
2019-06-26T09:55:09.645Z,102265.27
2019-06-26T09:57:39.017Z,102271.88
2019-06-26T10:00:11.917Z,102274.43
2019-06-26T10:02:41.351Z,102270.84
2019-06-26T10:05:13.479Z,102269.03
2019-06-26T10:07:42.839Z,102270.61
2019-06-26T10:10:12.633Z,102273.60
2019-06-26T10:12:42.001Z,102269.58
2019-06-26T10:15:11.978Z,102274.78
2019-06-26T10:17:41.631Z,102282.47
2019-06-26T10:20:11.015Z,102285.79
2019-06-26T10:22:40.461Z,102288.78
2019-06-26T10:25:11.413Z,102289.62
2019-06-26T10:27:41.454Z,102292.06
2019-06-26T10:30:11.469Z,102285.25
2019-06-26T10:32:41.246Z,102297.46
2019-06-26T10:35:10.847Z,102291.52
2019-06-26T10:37:40.562Z,102291.77
2019-06-26T10:40:10.043Z,102292.00
2019-06-26T10:42:39.628Z,102287.86
2019-06-26T10:45:09.325Z,102295.81
2019-06-26T10:47:39.937Z,102294.80
2019-06-26T10:50:10.162Z,102293.20
2019-06-26T10:52:39.653Z,102296.08
2019-06-26T10:55:09.606Z,102289.14
2019-06-26T10:57:38.978Z,102298.41
2019-06-26T11:00:12.311Z,102289.24
2019-06-26T11:02:42.262Z,102284.77
2019-06-26T11:05:12.075Z,102286.45
2019-06-26T11:07:41.427Z,102287.84
2019-06-26T11:10:11.522Z,102290.00
2019-06-26T11:12:40.894Z,102288.09
2019-06-26T11:15:12.639Z,102294.63
2019-06-26T11:17:42.539Z,102289.20
2019-06-26T11:20:15.342Z,102287.63
2019-06-26T11:22:45.167Z,102287.78
2019-06-26T11:25:14.850Z,102293.50
2019-06-26T11:27:44.234Z,102289.25
2019-06-26T11:30:14.638Z,102292.67
2019-06-26T11:32:44.012Z,102258.77
2019-06-26T11:35:15.383Z,102292.27
2019-06-26T11:37:45.229Z,102288.20
2019-06-26T11:40:15.288Z,102307.02
2019-06-26T11:42:44.651Z,102298.66
2019-06-26T11:45:14.469Z,102295.98
2019-06-26T11:47:46.026Z,102299.58
2019-06-26T11:50:17.123Z,102298.27
2019-06-26T11:52:46.485Z,102293.39
2019-06-26T11:55:16.882Z,102298.72
2019-06-26T11:57:46.431Z,102288.27
2019-06-26T12:00:17.794Z,102289.78
2019-06-26T12:02:47.166Z,102286.76
2019-06-26T12:05:16.774Z,102283.89
2019-06-26T12:07:46.156Z,102287.99
2019-06-26T12:10:16.144Z,102292.20
2019-06-26T12:12:45.775Z,102286.73
2019-06-26T12:15:16.057Z,102285.30
2019-06-26T12:17:45.656Z,102291.40
2019-06-26T12:20:19.017Z,102290.33
2019-06-26T12:22:46.512Z,102285.77
2019-06-26T12:25:15.955Z,102285.81
2019-06-26T12:27:45.301Z,102287.63
2019-06-26T12:30:14.721Z,102291.13
2019-06-26T12:33:01.477Z,102302.16
2019-06-26T12:35:15.440Z,102298.19
2019-06-26T12:37:44.774Z,102289.31
2019-06-26T12:40:14.552Z,102297.23
2019-06-26T12:42:43.885Z,102287.43
2019-06-26T12:45:13.324Z,102289.66
2019-06-26T12:47:42.772Z,102290.13
2019-06-26T12:50:14.703Z,102287.60
2019-06-26T12:52:44.048Z,102284.30
2019-06-26T12:55:13.801Z,102285.28
2019-06-26T12:57:43.173Z,102282.52
2019-06-26T13:00:13.326Z,102284.52
2019-06-26T13:02:42.731Z,102284.63
2019-06-26T13:05:12.459Z,102281.38
2019-06-26T13:07:41.790Z,102279.54
2019-06-26T13:10:12.170Z,102272.70
2019-06-26T13:12:41.503Z,102272.27
2019-06-26T13:15:11.228Z,102278.74
2019-06-26T13:17:40.576Z,102271.80
2019-06-26T13:20:10.769Z,102274.69
2019-06-26T13:22:40.167Z,102268.72
2019-06-26T13:25:10.652Z,102273.77
2019-06-26T13:27:40.124Z,102274.53
2019-06-26T13:30:09.916Z,102267.52
2019-06-26T13:32:40.091Z,102270.99
2019-06-26T13:35:09.566Z,102270.19
2019-06-26T13:37:38.937Z,102264.73
2019-06-26T13:40:08.507Z,102272.55
2019-06-26T13:42:37.837Z,102272.70
2019-06-26T13:45:07.842Z,102269.96
2019-06-26T13:47:37.168Z,102269.32
2019-06-26T13:50:07.732Z,102272.15
2019-06-26T13:52:37.076Z,102261.94
2019-06-26T13:55:07.491Z,102266.80
2019-06-26T13:57:36.822Z,102270.11
2019-06-26T14:00:07.144Z,102269.92
2019-06-26T14:02:36.471Z,102267.39
2019-06-26T14:05:09.584Z,102267.58
2019-06-26T14:07:39.214Z,102267.11
2019-06-26T14:10:09.767Z,102272.34
2019-06-26T14:12:39.152Z,102271.05
2019-06-26T14:15:09.369Z,102263.70
2019-06-26T14:17:38.969Z,102257.19
2019-06-26T14:20:09.577Z,102264.83
2019-06-26T14:22:39.328Z,102262.55
2019-06-26T14:25:09.304Z,102256.12
2019-06-26T14:27:39.663Z,102258.53
2019-06-26T14:30:09.368Z,102250.59
2019-06-26T14:32:38.973Z,102248.98
2019-06-26T14:35:08.550Z,102251.13
2019-06-26T14:37:37.890Z,102245.50
2019-06-26T14:40:08.927Z,102246.95
2019-06-26T14:42:38.263Z,102246.02
2019-06-26T14:45:08.520Z,102237.30
2019-06-26T14:47:37.884Z,102239.66
2019-06-26T14:50:07.813Z,102235.25
2019-06-26T14:52:37.415Z,102234.27
2019-06-26T14:55:09.647Z,102234.77
2019-06-26T14:57:38.977Z,102231.33
2019-06-26T15:00:09.336Z,102226.20
2019-06-26T15:02:38.651Z,102224.39
2019-06-26T15:05:09.380Z,102229.09
2019-06-26T15:07:38.979Z,102229.38
2019-06-26T15:10:10.024Z,102226.41
2019-06-26T15:12:40.354Z,102223.39
2019-06-26T15:15:11.239Z,102227.55
2019-06-26T15:17:40.594Z,102218.27
2019-06-26T15:20:10.193Z,102219.41
2019-06-26T15:22:39.549Z,102222.53
2019-06-26T15:25:08.986Z,102217.33
2019-06-26T15:27:38.321Z,102222.22
2019-06-26T15:30:08.347Z,102214.23
2019-06-26T15:32:37.923Z,102212.58
2019-06-26T15:35:08.573Z,102211.55
2019-06-26T15:37:38.345Z,102207.09
2019-06-26T15:40:08.547Z,102216.94
2019-06-26T15:42:38.206Z,102220.03
2019-06-26T15:45:07.986Z,102219.31
2019-06-26T15:47:37.348Z,102219.00
2019-06-26T15:50:11.126Z,102218.91
2019-06-26T15:52:41.485Z,102213.58
2019-06-26T15:55:10.923Z,102219.86
2019-06-26T15:57:40.294Z,102219.05
2019-06-26T16:00:09.887Z,102219.80
2019-06-26T16:02:39.262Z,102226.42
2019-06-26T16:05:08.970Z,102228.44
2019-06-26T16:07:38.318Z,102230.81
2019-06-26T16:10:08.373Z,102224.98
2019-06-26T16:12:37.700Z,102221.55
2019-06-26T16:15:07.466Z,102223.55
2019-06-26T16:17:50.543Z,102229.39
2019-06-26T16:20:20.441Z,102234.80
2019-06-26T16:22:49.773Z,102231.38
2019-06-26T16:25:19.136Z,102231.06
2019-06-26T16:28:04.301Z,102229.56
2019-06-26T16:30:19.625Z,102223.00
2019-06-26T16:32:50.315Z,102222.84
2019-06-26T16:35:20.678Z,102222.41
2019-06-26T16:37:50.245Z,102226.78
2019-06-26T16:40:20.819Z,102238.38
2019-06-26T16:42:50.161Z,102226.10
2019-06-26T16:45:21.055Z,102225.50
2019-06-26T16:47:50.424Z,102226.33
2019-06-26T16:50:19.845Z,102228.19
2019-06-26T16:52:50.230Z,102224.23
2019-06-26T16:55:19.912Z,102223.28
2019-06-26T16:57:49.515Z,102232.42
2019-06-26T17:00:19.012Z,102234.94
2019-06-26T17:02:48.381Z,102220.61
2019-06-26T17:05:17.820Z,102234.64
2019-06-26T17:07:47.171Z,102234.97
2019-06-26T17:10:17.658Z,102235.53
2019-06-26T17:12:47.019Z,102241.02
2019-06-26T17:15:17.098Z,102250.46
2019-06-26T17:17:46.707Z,102250.25
2019-06-26T17:20:16.900Z,102243.83
2019-06-26T17:22:46.243Z,102238.98
2019-06-26T17:25:15.716Z,102250.63
2019-06-26T17:27:45.062Z,102256.42
2019-06-26T17:30:14.662Z,102257.33
2019-06-26T17:32:44.102Z,102263.29
2019-06-26T17:35:13.673Z,102258.05
2019-06-26T17:37:43.298Z,102256.85
2019-06-26T17:40:13.122Z,102254.34
2019-06-26T17:42:42.459Z,102259.11
2019-06-26T17:45:12.343Z,102259.08
2019-06-26T17:47:41.699Z,102256.63
2019-06-26T17:50:11.522Z,102255.14
2019-06-26T17:52:41.118Z,102262.69
2019-06-26T17:55:11.657Z,102257.69
2019-06-26T17:57:41.016Z,102259.77
2019-06-26T18:00:12.064Z,102261.67
2019-06-26T18:02:41.465Z,102264.52
2019-06-26T18:05:12.478Z,102261.20
2019-06-26T18:07:41.803Z,102267.81
2019-06-26T18:10:11.582Z,102264.52
2019-06-26T18:12:40.912Z,102267.98
2019-06-26T18:15:11.293Z,102268.85
2019-06-26T18:17:40.614Z,102270.10
2019-06-26T18:20:10.017Z,102264.06
2019-06-26T18:22:39.333Z,102267.30
2019-06-26T18:25:09.108Z,102263.14
2019-06-26T18:27:38.713Z,102267.87
2019-06-26T18:30:08.987Z,102264.42
2019-06-26T18:32:38.319Z,102271.39
2019-06-26T18:35:07.986Z,102271.14
2019-06-26T18:37:37.309Z,102273.73
2019-06-26T18:40:08.292Z,102274.17
2019-06-26T18:42:37.871Z,102273.45
2019-06-26T18:45:07.642Z,102281.59
2019-06-26T18:47:37.010Z,102279.52
2019-06-26T18:50:08.446Z,102278.86
2019-06-26T18:52:37.801Z,102284.98
2019-06-26T18:55:10.186Z,102276.19
2019-06-26T18:57:39.541Z,102276.19
2019-06-26T19:00:09.328Z,102283.87
2019-06-26T19:02:38.732Z,102283.87
2019-06-26T19:05:08.831Z,102269.75
2019-06-26T19:07:38.153Z,102269.75
2019-06-26T19:10:08.910Z,102268.25
2019-06-26T19:12:38.597Z,102268.25
2019-06-26T19:15:08.264Z,102289.34
2019-06-26T19:17:37.826Z,102292.25
2019-06-26T19:20:08.991Z,102295.06
2019-06-26T19:22:38.321Z,102296.69
2019-06-26T19:25:10.367Z,102299.27
2019-06-26T19:27:39.971Z,102300.77
2019-06-26T19:30:11.496Z,102307.62
2019-06-26T19:32:40.811Z,102310.98
2019-06-26T19:35:18.967Z,102310.81
2019-06-26T19:37:41.981Z,102293.86
2019-06-26T19:40:12.281Z,102293.86
2019-06-26T19:42:41.644Z,102313.81
2019-06-26T19:45:11.692Z,102308.73
2019-06-26T19:47:41.061Z,102308.05
2019-06-26T19:50:11.219Z,102318.16
2019-06-26T19:52:40.901Z,102322.42
2019-06-26T19:55:10.604Z,102318.24
2019-06-26T19:57:39.942Z,102330.16
2019-06-26T20:00:10.320Z,102331.72
2019-06-26T20:02:39.776Z,102336.11
2019-06-26T20:05:10.879Z,102345.00
2019-06-26T20:07:40.201Z,102348.03
2019-06-26T20:10:10.368Z,102348.81
2019-06-26T20:12:39.963Z,102350.56
2019-06-26T20:15:09.733Z,102362.45
2019-06-26T20:17:39.063Z,102363.66
2019-06-26T20:20:08.958Z,102367.00
2019-06-26T20:22:38.479Z,102364.64
2019-06-26T20:25:08.943Z,102359.02
2019-06-26T20:27:39.803Z,102366.80
2019-06-26T20:30:10.331Z,102372.33
2019-06-26T20:32:41.043Z,102367.64
2019-06-26T20:35:10.609Z,102373.13
2019-06-26T20:37:40.303Z,102372.16
2019-06-26T20:40:11.031Z,102376.37
2019-06-26T20:42:40.518Z,102388.19
2019-06-26T20:45:10.689Z,102384.89
2019-06-26T20:47:40.075Z,102379.76
2019-06-26T20:50:09.610Z,102388.83
2019-06-26T20:52:39.206Z,102388.00
2019-06-26T20:55:08.789Z,102385.05
2019-06-26T20:57:38.122Z,102394.61
2019-06-26T21:00:08.867Z,102385.02
2019-06-26T21:02:39.863Z,102391.88
2019-06-26T21:05:10.501Z,102404.57
2019-06-26T21:07:40.433Z,102398.94
2019-06-26T21:10:10.535Z,102410.67
2019-06-26T21:12:40.214Z,102413.08
2019-06-26T21:15:10.380Z,102412.84
2019-06-26T21:17:39.750Z,102414.36
2019-06-26T21:20:10.958Z,102422.89
2019-06-26T21:22:40.302Z,102423.45
2019-06-26T21:25:18.168Z,102429.34
2019-06-26T21:27:41.293Z,102433.95
2019-06-26T21:30:11.014Z,102435.48
2019-06-26T21:32:40.854Z,102441.84
2019-06-26T21:35:10.549Z,102440.23
2019-06-26T21:37:40.238Z,102450.19
2019-06-26T21:40:09.974Z,102442.81
2019-06-26T21:42:39.323Z,102449.16
2019-06-26T21:45:13.286Z,102446.68
2019-06-26T21:47:42.641Z,102449.87
2019-06-26T21:50:13.754Z,102454.88
2019-06-26T21:52:43.228Z,102454.19
2019-06-26T21:55:12.838Z,102454.79
2019-06-26T21:57:59.995Z,102453.72
2019-06-26T22:00:47.965Z,102455.17
2019-06-26T22:03:35.420Z,102455.75
2019-06-26T22:06:12.235Z,102457.20
2019-06-26T22:08:43.523Z,102457.34
2019-06-26T22:11:14.205Z,102463.32
2019-06-26T22:13:43.989Z,102465.19
2019-06-26T22:16:13.394Z,102463.95
2019-06-26T22:18:42.952Z,102461.47
2019-06-26T22:21:12.602Z,102465.58
2019-06-26T22:23:42.197Z,102462.56
2019-06-26T22:26:14.111Z,102464.09
2019-06-26T22:28:42.590Z,102464.23
2019-06-26T22:31:11.918Z,102469.76
2019-06-26T22:33:41.662Z,102473.44
2019-06-26T22:36:11.751Z,102463.89
2019-06-26T22:38:41.118Z,102471.09
2019-06-26T22:41:10.480Z,102475.71
2019-06-26T22:43:40.043Z,102479.00
2019-06-26T22:46:09.454Z,102476.33
2019-06-26T22:48:38.989Z,102477.72
2019-06-26T22:51:08.751Z,102487.22
2019-06-26T22:53:38.086Z,102479.40
2019-06-26T22:56:08.365Z,102485.27
2019-06-26T22:58:37.883Z,102484.92
2019-06-26T23:01:07.220Z,102487.23
2019-06-26T23:03:36.690Z,102491.73
2019-06-26T23:06:06.397Z,102505.20
2019-06-26T23:08:35.747Z,102511.64
2019-06-26T23:11:05.196Z,102511.67
2019-06-26T23:13:34.540Z,102511.67
2019-06-26T23:16:03.923Z,102513.09
2019-06-26T23:18:33.497Z,102511.37
2019-06-26T23:21:03.131Z,102513.30
2019-06-26T23:23:32.471Z,102519.56
2019-06-26T23:26:01.917Z,102528.52
2019-06-26T23:28:31.242Z,102528.11
2019-06-26T23:31:00.588Z,102530.88
2019-06-26T23:33:30.195Z,102529.57
2019-06-26T23:35:59.570Z,102529.62
2019-06-26T23:38:28.904Z,102538.10
2019-06-26T23:40:58.283Z,102538.20
2019-06-26T23:43:27.861Z,102533.80
2019-06-26T23:45:57.493Z,102535.19
2019-06-26T23:48:27.797Z,102546.34
2019-06-26T23:50:57.416Z,102542.84
2019-06-26T23:53:26.758Z,102547.80
2019-06-26T23:55:56.123Z,102551.41
2019-06-26T23:58:25.493Z,102551.87
